sensor_id;sensor_type;location;lat;lon;timestamp;P1;durP1;ratioP1;P2;durP2;ratioP2
2884;SDS011;54691;48.262;11.586;2023-07-31T00:03:37;6.05;;;1.15;;
2884;SDS011;54691;48.262;11.586;2023-07-31T00:10:34;5.08;;;1.50;;
2884;SDS011;54691;48.262;11.586;2023-07-31T00:17:31;7.33;;;1.85;;
2884;SDS011;54691;48.262;11.586;2023-07-31T00:24:28;5.42;;;1.60;;
2884;SDS011;54691;48.262;11.586;2023-07-31T00:31:25;4.60;;;1.50;;
2884;SDS011;54691;48.262;11.586;2023-07-31T00:38:22;6.30;;;1.20;;
2884;SDS011;54691;48.262;11.586;2023-07-31T00:45:19;4.78;;;1.20;;
2884;SDS011;54691;48.262;11.586;2023-07-31T00:52:18;3.52;;;1.32;;
2884;SDS011;54691;48.262;11.586;2023-07-31T00:59:15;4.05;;;1.17;;
2884;SDS011;54691;48.262;11.586;2023-07-31T01:06:30;3.33;;;1.27;;
2884;SDS011;54691;48.262;11.586;2023-07-31T01:10:03;2.58;;;1.00;;
2884;SDS011;54691;48.262;11.586;2023-07-31T01:13:32;4.40;;;1.15;;
2884;SDS011;54691;48.262;11.586;2023-07-31T01:20:29;1.52;;;0.80;;
2884;SDS011;54691;48.262;11.586;2023-07-31T01:27:30;3.33;;;1.02;;
2884;SDS011;54691;48.262;11.586;2023-07-31T01:34:28;3.75;;;1.50;;
2884;SDS011;54691;48.262;11.586;2023-07-31T01:41:26;11.28;;;2.47;;
2884;SDS011;54691;48.262;11.586;2023-07-31T01:48:23;4.53;;;2.72;;
2884;SDS011;54691;48.262;11.586;2023-07-31T01:55:20;2.05;;;1.02;;
2884;SDS011;54691;48.262;11.586;2023-07-31T02:02:17;4.55;;;1.40;;
2884;SDS011;54691;48.262;11.586;2023-07-31T02:09:14;10.48;;;1.27;;
2884;SDS011;54691;48.262;11.586;2023-07-31T02:16:11;4.72;;;1.98;;
2884;SDS011;54691;48.262;11.586;2023-07-31T02:23:08;5.37;;;1.10;;
2884;SDS011;54691;48.262;11.586;2023-07-31T02:30:05;3.60;;;1.25;;
2884;SDS011;54691;48.262;11.586;2023-07-31T02:37:02;3.30;;;1.12;;
2884;SDS011;54691;48.262;11.586;2023-07-31T02:43:59;3.33;;;1.05;;
2884;SDS011;54691;48.262;11.586;2023-07-31T02:50:56;3.22;;;1.27;;
2884;SDS011;54691;48.262;11.586;2023-07-31T02:57:53;4.72;;;1.45;;
2884;SDS011;54691;48.262;11.586;2023-07-31T03:04:50;2.72;;;1.15;;
2884;SDS011;54691;48.262;11.586;2023-07-31T03:11:47;4.87;;;1.32;;
2884;SDS011;54691;48.262;11.586;2023-07-31T03:18:44;3.42;;;0.98;;
2884;SDS011;54691;48.262;11.586;2023-07-31T03:25:42;2.10;;;1.30;;
2884;SDS011;54691;48.262;11.586;2023-07-31T03:32:40;3.77;;;1.77;;
2884;SDS011;54691;48.262;11.586;2023-07-31T03:39:37;3.72;;;1.00;;
2884;SDS011;54691;48.262;11.586;2023-07-31T03:46:34;7.40;;;1.32;;
2884;SDS011;54691;48.262;11.586;2023-07-31T03:53:31;2.77;;;1.37;;
2884;SDS011;54691;48.262;11.586;2023-07-31T04:00:28;6.62;;;1.30;;
2884;SDS011;54691;48.262;11.586;2023-07-31T04:07:25;5.72;;;1.30;;
2884;SDS011;54691;48.262;11.586;2023-07-31T04:14:22;1.90;;;1.10;;
2884;SDS011;54691;48.262;11.586;2023-07-31T04:21:19;2.58;;;1.20;;
2884;SDS011;54691;48.262;11.586;2023-07-31T04:28:16;4.67;;;1.90;;
2884;SDS011;54691;48.262;11.586;2023-07-31T04:35:13;5.35;;;1.30;;
2884;SDS011;54691;48.262;11.586;2023-07-31T04:42:11;4.17;;;1.00;;
2884;SDS011;54691;48.262;11.586;2023-07-31T04:49:08;3.50;;;1.45;;
2884;SDS011;54691;48.262;11.586;2023-07-31T04:56:05;2.42;;;1.20;;
2884;SDS011;54691;48.262;11.586;2023-07-31T05:03:02;6.22;;;1.30;;
2884;SDS011;54691;48.262;11.586;2023-07-31T05:09:59;2.77;;;1.10;;
2884;SDS011;54691;48.262;11.586;2023-07-31T05:16:56;5.78;;;1.25;;
2884;SDS011;54691;48.262;11.586;2023-07-31T05:23:53;2.75;;;1.40;;
2884;SDS011;54691;48.262;11.586;2023-07-31T05:30:50;9.63;;;1.55;;
2884;SDS011;54691;48.262;11.586;2023-07-31T05:37:47;5.95;;;1.42;;
2884;SDS011;54691;48.262;11.586;2023-07-31T05:44:45;7.78;;;1.32;;
2884;SDS011;54691;48.262;11.586;2023-07-31T05:51:42;4.83;;;1.55;;
2884;SDS011;54691;48.262;11.586;2023-07-31T05:58:39;7.95;;;1.32;;
2884;SDS011;54691;48.262;11.586;2023-07-31T06:05:36;6.35;;;1.40;;
2884;SDS011;54691;48.262;11.586;2023-07-31T06:12:34;8.33;;;1.55;;
2884;SDS011;54691;48.262;11.586;2023-07-31T06:19:33;8.63;;;1.82;;
2884;SDS011;54691;48.262;11.586;2023-07-31T06:26:31;3.12;;;1.67;;
2884;SDS011;54691;48.262;11.586;2023-07-31T06:33:28;3.22;;;1.20;;
2884;SDS011;54691;48.262;11.586;2023-07-31T06:40:29;3.00;;;1.42;;
2884;SDS011;54691;48.262;11.586;2023-07-31T06:47:26;4.95;;;1.40;;
2884;SDS011;54691;48.262;11.586;2023-07-31T06:54:23;5.72;;;1.90;;
2884;SDS011;54691;48.262;11.586;2023-07-31T07:01:20;3.02;;;1.57;;
2884;SDS011;54691;48.262;11.586;2023-07-31T07:08:17;2.77;;;1.32;;
2884;SDS011;54691;48.262;11.586;2023-07-31T07:15:15;2.92;;;1.50;;
2884;SDS011;54691;48.262;11.586;2023-07-31T07:22:12;3.83;;;1.25;;
2884;SDS011;54691;48.262;11.586;2023-07-31T07:29:09;3.00;;;1.50;;
2884;SDS011;54691;48.262;11.586;2023-07-31T07:36:06;3.30;;;1.35;;
2884;SDS011;54691;48.262;11.586;2023-07-31T07:43:05;2.67;;;1.40;;
2884;SDS011;54691;48.262;11.586;2023-07-31T07:50:02;3.72;;;1.30;;
2884;SDS011;54691;48.262;11.586;2023-07-31T07:56:59;4.78;;;1.70;;
2884;SDS011;54691;48.262;11.586;2023-07-31T08:03:56;8.20;;;1.98;;
2884;SDS011;54691;48.262;11.586;2023-07-31T08:10:53;3.98;;;1.62;;
2884;SDS011;54691;48.262;11.586;2023-07-31T08:17:50;3.70;;;1.50;;
2884;SDS011;54691;48.262;11.586;2023-07-31T08:24:50;4.65;;;1.20;;
2884;SDS011;54691;48.262;11.586;2023-07-31T08:35:36;5.60;;;1.50;;
2884;SDS011;54691;48.262;11.586;2023-07-31T08:39:32;2.62;;;1.10;;
2884;SDS011;54691;48.262;11.586;2023-07-31T08:53:42;3.72;;;1.30;;
2884;SDS011;54691;48.262;11.586;2023-07-31T09:04:17;4.65;;;0.88;;
2884;SDS011;54691;48.262;11.586;2023-07-31T09:08:10;7.20;;;1.70;;
2884;SDS011;54691;48.262;11.586;2023-07-31T09:12:00;2.40;;;0.80;;
2884;SDS011;54691;48.262;11.586;2023-07-31T09:15:30;2.80;;;1.60;;
2884;SDS011;54691;48.262;11.586;2023-07-31T09:22:39;2.52;;;1.17;;
2884;SDS011;54691;48.262;11.586;2023-07-31T09:26:10;6.27;;;1.50;;
2884;SDS011;54691;48.262;11.586;2023-07-31T09:36:45;3.05;;;1.57;;
2884;SDS011;54691;48.262;11.586;2023-07-31T09:40:37;4.50;;;1.60;;
2884;SDS011;54691;48.262;11.586;2023-07-31T09:44:09;1.57;;;0.95;;
2884;SDS011;54691;48.262;11.586;2023-07-31T09:52:32;3.85;;;1.20;;
2884;SDS011;54691;48.262;11.586;2023-07-31T09:59:29;2.50;;;1.15;;
2884;SDS011;54691;48.262;11.586;2023-07-31T10:06:27;5.58;;;1.30;;
2884;SDS011;54691;48.262;11.586;2023-07-31T10:13:25;2.95;;;1.42;;
2884;SDS011;54691;48.262;11.586;2023-07-31T10:20:22;4.45;;;1.50;;
2884;SDS011;54691;48.262;11.586;2023-07-31T10:27:24;5.58;;;1.40;;
2884;SDS011;54691;48.262;11.586;2023-07-31T10:48:41;2.30;;;1.25;;
2884;SDS011;54691;48.262;11.586;2023-07-31T11:03:00;4.22;;;1.30;;
2884;SDS011;54691;48.262;11.586;2023-07-31T11:06:29;2.80;;;1.10;;
2884;SDS011;54691;48.262;11.586;2023-07-31T11:13:33;3.65;;;1.12;;
2884;SDS011;54691;48.262;11.586;2023-07-31T11:20:25;3.30;;;1.37;;
2884;SDS011;54691;48.262;11.586;2023-07-31T11:27:26;4.22;;;1.27;;
2884;SDS011;54691;48.262;11.586;2023-07-31T11:34:22;2.50;;;0.98;;
2884;SDS011;54691;48.262;11.586;2023-07-31T11:41:19;3.00;;;1.12;;
2884;SDS011;54691;48.262;11.586;2023-07-31T11:48:25;4.30;;;1.10;;
2884;SDS011;54691;48.262;11.586;2023-07-31T11:55:18;1.52;;;1.07;;
2884;SDS011;54691;48.262;11.586;2023-07-31T12:02:15;6.87;;;1.30;;
2884;SDS011;54691;48.262;11.586;2023-07-31T12:09:16;4.80;;;1.40;;
2884;SDS011;54691;48.262;11.586;2023-07-31T12:16:13;3.00;;;1.30;;
2884;SDS011;54691;48.262;11.586;2023-07-31T12:23:17;4.60;;;1.60;;
2884;SDS011;54691;48.262;11.586;2023-07-31T12:26:46;5.80;;;1.80;;
2884;SDS011;54691;48.262;11.586;2023-07-31T12:33:43;3.52;;;1.40;;
2884;SDS011;54691;48.262;11.586;2023-07-31T12:40:43;3.12;;;1.30;;
2884;SDS011;54691;48.262;11.586;2023-07-31T12:47:40;3.22;;;1.20;;
2884;SDS011;54691;48.262;11.586;2023-07-31T12:54:37;2.65;;;1.17;;
2884;SDS011;54691;48.262;11.586;2023-07-31T13:01:34;2.08;;;1.12;;
2884;SDS011;54691;48.262;11.586;2023-07-31T13:08:31;2.45;;;1.30;;
2884;SDS011;54691;48.262;11.586;2023-07-31T13:15:28;2.40;;;1.07;;
2884;SDS011;54691;48.262;11.586;2023-07-31T13:22:26;4.12;;;1.47;;
2884;SDS011;54691;48.262;11.586;2023-07-31T13:29:23;3.37;;;1.42;;
2884;SDS011;54691;48.262;11.586;2023-07-31T13:36:23;2.30;;;1.10;;
2884;SDS011;54691;48.262;11.586;2023-07-31T13:43:20;2.35;;;1.05;;
2884;SDS011;54691;48.262;11.586;2023-07-31T13:50:17;3.27;;;1.20;;
2884;SDS011;54691;48.262;11.586;2023-07-31T13:57:18;2.30;;;0.90;;
2884;SDS011;54691;48.262;11.586;2023-07-31T14:04:18;3.60;;;1.10;;
2884;SDS011;54691;48.262;11.586;2023-07-31T14:11:15;3.47;;;1.30;;
2884;SDS011;54691;48.262;11.586;2023-07-31T14:18:12;1.30;;;1.20;;
2884;SDS011;54691;48.262;11.586;2023-07-31T14:25:09;3.90;;;1.65;;
2884;SDS011;54691;48.262;11.586;2023-07-31T14:32:06;9.58;;;1.87;;
2884;SDS011;54691;48.262;11.586;2023-07-31T14:39:03;7.60;;;1.50;;
2884;SDS011;54691;48.262;11.586;2023-07-31T14:46:00;6.50;;;2.00;;
2884;SDS011;54691;48.262;11.586;2023-07-31T14:52:57;4.10;;;1.85;;
2884;SDS011;54691;48.262;11.586;2023-07-31T14:59:55;4.85;;;1.67;;
2884;SDS011;54691;48.262;11.586;2023-07-31T15:06:53;2.15;;;1.20;;
2884;SDS011;54691;48.262;11.586;2023-07-31T15:13:50;2.40;;;1.30;;
2884;SDS011;54691;48.262;11.586;2023-07-31T15:20:47;3.58;;;1.47;;
2884;SDS011;54691;48.262;11.586;2023-07-31T15:27:44;2.60;;;1.50;;
2884;SDS011;54691;48.262;11.586;2023-07-31T15:34:41;5.20;;;1.37;;
2884;SDS011;54691;48.262;11.586;2023-07-31T15:41:38;5.65;;;1.70;;
2884;SDS011;54691;48.262;11.586;2023-07-31T15:48:36;4.08;;;1.65;;
2884;SDS011;54691;48.262;11.586;2023-07-31T15:55:39;7.40;;;1.77;;
2884;SDS011;54691;48.262;11.586;2023-07-31T16:06:13;5.65;;;1.77;;
2884;SDS011;54691;48.262;11.586;2023-07-31T16:13:14;4.22;;;1.92;;
2884;SDS011;54691;48.262;11.586;2023-07-31T16:20:11;4.67;;;1.70;;
2884;SDS011;54691;48.262;11.586;2023-07-31T16:27:08;4.05;;;1.85;;
2884;SDS011;54691;48.262;11.586;2023-07-31T16:34:05;4.00;;;1.80;;
2884;SDS011;54691;48.262;11.586;2023-07-31T16:41:05;5.28;;;2.10;;
2884;SDS011;54691;48.262;11.586;2023-07-31T16:48:05;5.03;;;2.12;;
2884;SDS011;54691;48.262;11.586;2023-07-31T16:55:02;4.10;;;1.80;;
2884;SDS011;54691;48.262;11.586;2023-07-31T17:01:59;3.67;;;2.20;;
2884;SDS011;54691;48.262;11.586;2023-07-31T17:08:56;10.13;;;2.05;;
2884;SDS011;54691;48.262;11.586;2023-07-31T17:15:53;4.28;;;1.95;;
2884;SDS011;54691;48.262;11.586;2023-07-31T17:22:50;7.30;;;2.15;;
2884;SDS011;54691;48.262;11.586;2023-07-31T17:29:47;4.87;;;1.95;;
2884;SDS011;54691;48.262;11.586;2023-07-31T17:36:44;6.67;;;1.87;;
2884;SDS011;54691;48.262;11.586;2023-07-31T17:43:41;8.33;;;2.35;;
2884;SDS011;54691;48.262;11.586;2023-07-31T17:47:12;5.40;;;2.08;;
2884;SDS011;54691;48.262;11.586;2023-07-31T17:54:09;9.20;;;2.45;;
2884;SDS011;54691;48.262;11.586;2023-07-31T18:01:06;5.92;;;2.20;;
2884;SDS011;54691;48.262;11.586;2023-07-31T18:08:03;6.83;;;1.95;;
2884;SDS011;54691;48.262;11.586;2023-07-31T18:15:00;5.28;;;1.90;;
2884;SDS011;54691;48.262;11.586;2023-07-31T18:21:57;8.18;;;2.15;;
2884;SDS011;54691;48.262;11.586;2023-07-31T18:28:54;6.80;;;2.25;;
2884;SDS011;54691;48.262;11.586;2023-07-31T18:35:51;11.50;;;2.30;;
2884;SDS011;54691;48.262;11.586;2023-07-31T18:42:48;7.65;;;2.15;;
2884;SDS011;54691;48.262;11.586;2023-07-31T18:49:45;7.53;;;1.37;;
2884;SDS011;54691;48.262;11.586;2023-07-31T18:56:42;6.33;;;2.08;;
2884;SDS011;54691;48.262;11.586;2023-07-31T19:03:39;5.83;;;1.70;;
2884;SDS011;54691;48.262;11.586;2023-07-31T19:10:36;4.97;;;1.50;;
2884;SDS011;54691;48.262;11.586;2023-07-31T19:17:33;6.12;;;1.98;;
2884;SDS011;54691;48.262;11.586;2023-07-31T19:24:31;4.15;;;1.52;;
2884;SDS011;54691;48.262;11.586;2023-07-31T19:31:28;3.90;;;1.60;;
2884;SDS011;54691;48.262;11.586;2023-07-31T19:38:25;5.28;;;2.98;;
2884;SDS011;54691;48.262;11.586;2023-07-31T19:45:22;7.65;;;2.72;;
2884;SDS011;54691;48.262;11.586;2023-07-31T19:52:21;7.53;;;3.05;;
2884;SDS011;54691;48.262;11.586;2023-07-31T19:59:18;6.65;;;2.30;;
2884;SDS011;54691;48.262;11.586;2023-07-31T20:06:15;5.30;;;1.90;;
2884;SDS011;54691;48.262;11.586;2023-07-31T20:13:12;5.08;;;2.10;;
2884;SDS011;54691;48.262;11.586;2023-07-31T20:20:09;6.80;;;2.75;;
2884;SDS011;54691;48.262;11.586;2023-07-31T20:27:08;5.17;;;2.72;;
2884;SDS011;54691;48.262;11.586;2023-07-31T20:34:06;2.92;;;1.60;;
2884;SDS011;54691;48.262;11.586;2023-07-31T20:41:07;5.83;;;1.77;;
2884;SDS011;54691;48.262;11.586;2023-07-31T20:48:04;8.43;;;1.98;;
2884;SDS011;54691;48.262;11.586;2023-07-31T20:55:03;4.00;;;1.75;;
2884;SDS011;54691;48.262;11.586;2023-07-31T21:02:00;6.85;;;2.08;;
2884;SDS011;54691;48.262;11.586;2023-07-31T21:08:57;5.00;;;1.70;;
2884;SDS011;54691;48.262;11.586;2023-07-31T21:15:58;5.37;;;2.37;;
2884;SDS011;54691;48.262;11.586;2023-07-31T21:22:55;3.40;;;1.90;;
2884;SDS011;54691;48.262;11.586;2023-07-31T21:29:52;6.42;;;2.10;;
2884;SDS011;54691;48.262;11.586;2023-07-31T21:36:49;5.65;;;2.00;;
2884;SDS011;54691;48.262;11.586;2023-07-31T21:43:46;4.95;;;2.12;;
2884;SDS011;54691;48.262;11.586;2023-07-31T21:50:44;6.45;;;1.90;;
2884;SDS011;54691;48.262;11.586;2023-07-31T21:57:41;4.85;;;1.52;;
2884;SDS011;54691;48.262;11.586;2023-07-31T22:04:38;5.72;;;1.85;;
2884;SDS011;54691;48.262;11.586;2023-07-31T22:11:37;2.50;;;1.70;;
2884;SDS011;54691;48.262;11.586;2023-07-31T22:18:34;3.85;;;1.60;;
2884;SDS011;54691;48.262;11.586;2023-07-31T22:25:31;3.85;;;1.72;;
2884;SDS011;54691;48.262;11.586;2023-07-31T22:32:29;6.55;;;1.90;;
2884;SDS011;54691;48.262;11.586;2023-07-31T22:39:26;4.37;;;1.80;;
2884;SDS011;54691;48.262;11.586;2023-07-31T22:46:23;5.83;;;1.82;;
2884;SDS011;54691;48.262;11.586;2023-07-31T22:53:20;8.73;;;1.70;;
2884;SDS011;54691;48.262;11.586;2023-07-31T23:00:17;3.85;;;1.85;;
2884;SDS011;54691;48.262;11.586;2023-07-31T23:07:14;4.03;;;1.70;;
2884;SDS011;54691;48.262;11.586;2023-07-31T23:14:11;4.05;;;1.40;;
2884;SDS011;54691;48.262;11.586;2023-07-31T23:21:08;2.55;;;1.80;;
2884;SDS011;54691;48.262;11.586;2023-07-31T23:28:06;3.72;;;1.52;;
2884;SDS011;54691;48.262;11.586;2023-07-31T23:35:03;3.12;;;1.57;;
2884;SDS011;54691;48.262;11.586;2023-07-31T23:42:00;3.98;;;1.30;;
2884;SDS011;54691;48.262;11.586;2023-07-31T23:48:57;7.55;;;1.77;;
2884;SDS011;54691;48.262;11.586;2023-07-31T23:55:54;3.40;;;1.82;;
